createdAt,value
2018-11-12T00:02:00.484Z,100473.25
2018-11-12T00:04:27.943Z,100472.81
2018-11-12T00:06:55.357Z,100470.56
2018-11-12T00:09:22.760Z,100472.08
2018-11-12T00:11:50.200Z,100470.61
2018-11-12T00:14:17.611Z,100466.70
2018-11-12T00:16:45.016Z,100473.27
2018-11-12T00:19:12.416Z,100472.34
2018-11-12T00:21:39.819Z,100471.46
2018-11-12T00:24:07.472Z,100471.05
2018-11-12T00:26:34.941Z,100465.16
2018-11-12T00:29:02.343Z,100456.84
2018-11-12T00:31:29.763Z,100460.27
2018-11-12T00:33:57.177Z,100453.92
2018-11-12T00:36:24.580Z,100462.98
2018-11-12T00:38:51.989Z,100469.30
2018-11-12T00:41:19.391Z,100466.83
2018-11-12T00:43:46.820Z,100465.46
2018-11-12T00:46:14.211Z,100463.11
2018-11-12T00:48:41.670Z,100478.00
2018-11-12T00:51:09.073Z,100479.73
2018-11-12T00:53:36.476Z,100485.47
2018-11-12T00:56:03.893Z,100474.56
2018-11-12T00:58:31.391Z,100488.80
2018-11-12T01:00:58.800Z,100487.61
2018-11-12T01:03:26.208Z,100480.76
2018-11-12T01:05:53.612Z,100488.64
2018-11-12T01:08:21.007Z,100486.77
2018-11-12T01:10:48.418Z,100481.60
2018-11-12T01:13:15.812Z,100476.26
2018-11-12T01:15:43.211Z,100472.46
2018-11-12T01:18:10.647Z,100467.04
2018-11-12T01:20:38.056Z,100465.81
2018-11-12T01:23:05.448Z,100464.18
2018-11-12T01:25:32.868Z,100470.67
2018-11-12T01:28:00.270Z,100473.38
2018-11-12T01:30:27.685Z,100474.09
2018-11-12T01:32:55.088Z,100465.05
2018-11-12T01:35:22.500Z,100476.55
2018-11-12T01:37:49.896Z,100479.00
2018-11-12T01:40:17.459Z,100474.55
2018-11-12T01:42:45.189Z,100481.02
2018-11-12T01:45:13.703Z,100479.88
2018-11-12T01:47:41.265Z,100474.20
2018-11-12T01:50:09.720Z,100472.91
2018-11-12T01:52:37.112Z,100478.20
2018-11-12T01:55:04.515Z,100472.56
2018-11-12T01:57:31.921Z,100477.31
2018-11-12T01:59:59.327Z,100477.13
2018-11-12T02:02:26.729Z,100475.66
2018-11-12T02:04:54.263Z,100470.94
2018-11-12T02:07:21.591Z,100463.45
2018-11-12T02:09:49.004Z,100464.75
2018-11-12T02:12:16.403Z,100460.03
2018-11-12T02:14:43.812Z,100456.86
2018-11-12T02:17:11.196Z,100456.97
2018-11-12T02:19:38.628Z,100463.19
2018-11-12T02:22:06.028Z,100465.19
2018-11-12T02:24:33.440Z,100452.97
2018-11-12T02:27:01.221Z,100460.06
2018-11-12T02:29:28.661Z,100462.41
2018-11-12T02:31:56.068Z,100458.61
2018-11-12T02:34:23.576Z,100451.55
2018-11-12T02:36:51.011Z,100450.67
2018-11-12T02:39:18.388Z,100462.30
2018-11-12T02:41:45.807Z,100457.25
2018-11-12T02:44:13.256Z,100461.42
2018-11-12T02:46:40.768Z,100466.69
2018-11-12T02:49:08.235Z,100466.59
2018-11-12T02:51:35.593Z,100465.41
2018-11-12T02:54:03.921Z,100475.73
2018-11-12T02:56:31.888Z,100473.09
2018-11-12T02:58:59.325Z,100478.80
2018-11-12T03:01:26.737Z,100482.41
2018-11-12T03:03:54.571Z,100481.90
2018-11-12T03:06:22.236Z,100483.52
2018-11-12T03:08:49.783Z,100481.59
2018-11-12T03:11:17.385Z,100491.63
2018-11-12T03:13:44.793Z,100486.17
2018-11-12T03:16:12.248Z,100481.75
2018-11-12T03:18:39.656Z,100483.92
2018-11-12T03:21:07.184Z,100481.42
2018-11-12T03:23:34.616Z,100476.33
2018-11-12T03:26:02.136Z,100474.86
2018-11-12T03:28:29.593Z,100472.69
2018-11-12T03:30:56.992Z,100473.16
2018-11-12T03:33:24.400Z,100475.27
2018-11-12T03:35:51.805Z,100473.75
2018-11-12T03:38:19.213Z,100475.48
2018-11-12T03:40:46.636Z,100467.63
2018-11-12T03:43:14.108Z,100479.66
2018-11-12T03:45:41.520Z,100477.03
2018-11-12T03:48:08.920Z,100471.88
2018-11-12T03:50:36.331Z,100482.05
2018-11-12T03:53:03.753Z,100487.28
2018-11-12T03:55:31.152Z,100491.56
2018-11-12T03:57:58.557Z,100490.27
2018-11-12T04:00:30.639Z,100491.15
2018-11-12T04:02:57.993Z,100493.07
2018-11-12T04:05:25.405Z,100488.39
2018-11-12T04:07:52.808Z,100499.41
2018-11-12T04:10:21.052Z,100489.42
2018-11-12T04:12:48.457Z,100495.53
2018-11-12T04:15:18.324Z,100492.11
2018-11-12T04:17:45.732Z,100491.47
2018-11-12T04:20:17.336Z,100490.30
2018-11-12T04:22:51.953Z,100490.00
2018-11-12T04:25:19.452Z,100501.93
2018-11-12T04:27:46.852Z,100494.56
2018-11-12T04:30:15.285Z,100497.25
2018-11-12T04:32:43.869Z,100502.20
2018-11-12T04:35:11.604Z,100499.09
2018-11-12T04:37:39.016Z,100502.18
2018-11-12T04:40:06.473Z,100507.97
2018-11-12T04:42:33.872Z,100512.53
2018-11-12T04:45:01.305Z,100514.02
2018-11-12T04:47:28.697Z,100508.81
2018-11-12T04:49:56.599Z,100517.88
2018-11-12T04:52:24.035Z,100509.81
2018-11-12T04:54:51.500Z,100522.04
2018-11-12T04:57:18.905Z,100518.94
2018-11-12T04:59:46.312Z,100527.27
2018-11-12T05:02:13.752Z,100527.08
2018-11-12T05:04:41.380Z,100535.30
2018-11-12T05:07:08.893Z,100535.10
2018-11-12T05:09:36.294Z,100536.59
2018-11-12T05:12:03.805Z,100537.61
2018-11-12T05:14:31.265Z,100531.43
2018-11-12T05:16:58.711Z,100537.20
2018-11-12T05:19:26.117Z,100532.85
2018-11-12T05:21:53.572Z,100526.81
2018-11-12T05:24:20.989Z,100526.00
2018-11-12T05:26:48.444Z,100532.45
2018-11-12T05:29:15.839Z,100531.23
2018-11-12T05:31:43.244Z,100530.16
2018-11-12T05:34:10.647Z,100536.93
2018-11-12T05:36:38.049Z,100540.80
2018-11-12T05:39:05.542Z,100540.59
2018-11-12T05:41:32.964Z,100545.53
2018-11-12T05:44:00.613Z,100549.52
2018-11-12T05:46:28.040Z,100548.71
2018-11-12T05:48:55.450Z,100542.86
2018-11-12T05:51:22.873Z,100552.30
2018-11-12T05:53:50.281Z,100555.06
2018-11-12T05:56:17.697Z,100551.89
2018-11-12T05:58:45.109Z,100546.37
2018-11-12T06:01:12.532Z,100544.03
2018-11-12T06:03:39.930Z,100546.25
2018-11-12T06:06:07.340Z,100546.16
2018-11-12T06:08:34.760Z,100542.50
2018-11-12T06:11:02.181Z,100545.32
2018-11-12T06:13:29.589Z,100548.50
2018-11-12T06:15:56.993Z,100546.03
2018-11-12T06:18:24.402Z,100559.63
2018-11-12T06:20:51.836Z,100558.94
2018-11-12T06:23:19.245Z,100563.13
2018-11-12T06:25:46.648Z,100568.36
2018-11-12T06:28:14.062Z,100571.23
2018-11-12T06:30:41.464Z,100574.52
2018-11-12T06:33:08.884Z,100577.22
2018-11-12T06:35:36.296Z,100577.10
2018-11-12T06:38:03.826Z,100580.85
2018-11-12T06:40:31.225Z,100577.58
2018-11-12T06:42:58.681Z,100590.59
2018-11-12T06:45:27.262Z,100587.69
2018-11-12T06:47:55.476Z,100576.89
2018-11-12T06:50:24.360Z,100588.98
2018-11-12T06:52:51.881Z,100596.77
2018-11-12T06:55:19.791Z,100603.88
2018-11-12T06:57:47.625Z,100621.05
2018-11-12T07:00:16.096Z,100616.90
2018-11-12T07:02:43.526Z,100623.34
2018-11-12T07:05:11.569Z,100622.25
2018-11-12T07:07:39.212Z,100622.66
2018-11-12T07:10:06.637Z,100623.66
2018-11-12T07:12:34.139Z,100624.02
2018-11-12T07:15:01.568Z,100631.59
2018-11-12T07:17:28.959Z,100628.59
2018-11-12T07:19:56.364Z,100621.08
2018-11-12T07:22:23.940Z,100623.80
2018-11-12T07:24:51.496Z,100619.86
2018-11-12T07:27:19.060Z,100633.98
2018-11-12T07:29:46.924Z,100629.59
2018-11-12T07:32:14.404Z,100632.05
2018-11-12T07:34:41.812Z,100641.08
2018-11-12T07:37:09.222Z,100639.72
2018-11-12T07:39:36.637Z,100655.31
2018-11-12T07:42:04.087Z,100655.11
2018-11-12T07:44:31.469Z,100650.13
2018-11-12T07:46:58.874Z,100664.85
2018-11-12T07:49:26.280Z,100656.22
2018-11-12T07:51:53.696Z,100647.64
2018-11-12T07:54:21.133Z,100642.37
2018-11-12T07:56:48.567Z,100645.25
2018-11-12T07:59:16.013Z,100641.97
2018-11-12T08:01:43.420Z,100654.95
2018-11-12T08:04:11.253Z,100654.08
2018-11-12T08:06:38.679Z,100654.45
2018-11-12T08:09:06.122Z,100655.64
2018-11-12T08:11:33.512Z,100649.73
2018-11-12T08:14:00.927Z,100650.20
2018-11-12T08:16:28.336Z,100646.47
2018-11-12T08:18:55.759Z,100649.32
2018-11-12T08:21:23.193Z,100655.30
2018-11-12T08:23:50.663Z,100652.59
2018-11-12T08:26:18.120Z,100655.41
2018-11-12T08:28:45.532Z,100659.36
2018-11-12T08:31:13.459Z,100656.12
2018-11-12T08:33:40.869Z,100660.81
2018-11-12T08:36:08.359Z,100657.24
2018-11-12T08:38:35.721Z,100650.27
2018-11-12T08:41:03.232Z,100648.97
2018-11-12T08:43:30.568Z,100639.14
2018-11-12T08:45:58.663Z,100640.74
2018-11-12T08:48:26.076Z,100636.36
2018-11-12T08:50:53.471Z,100642.03
2018-11-12T08:53:20.885Z,100644.14
2018-11-12T08:55:48.299Z,100634.92
2018-11-12T08:58:16.716Z,100645.81
2018-11-12T09:00:43.220Z,100633.80
2018-11-12T09:03:10.620Z,100641.93
2018-11-12T09:05:38.139Z,100640.91
2018-11-12T09:08:05.572Z,100630.64
2018-11-12T09:10:34.573Z,100621.22
2018-11-12T09:13:02.027Z,100623.23
2018-11-12T09:15:29.619Z,100599.72
2018-11-12T09:17:56.992Z,100605.95
2018-11-12T09:20:25.593Z,100597.09
2018-11-12T09:22:53.356Z,100597.73
2018-11-12T09:25:22.660Z,100604.70
2018-11-12T09:27:50.229Z,100603.11
2018-11-12T09:30:19.758Z,100597.52
2018-11-12T09:32:47.402Z,100598.73
2018-11-12T09:35:16.080Z,100585.48
2018-11-12T09:37:44.773Z,100593.91
2018-11-12T09:40:12.630Z,100594.48
2018-11-12T09:42:40.217Z,100594.64
2018-11-12T09:45:07.706Z,100592.37
2018-11-12T09:47:35.168Z,100596.50
2018-11-12T09:50:02.543Z,100595.27
2018-11-12T09:52:30.104Z,100588.31
2018-11-12T09:54:57.496Z,100579.98
2018-11-12T09:57:24.904Z,100574.17
2018-11-12T09:59:52.377Z,100572.87
2018-11-12T10:02:20.540Z,100563.50
2018-11-12T10:04:48.642Z,100555.96
2018-11-12T10:07:15.925Z,100549.48
2018-11-12T10:09:44.248Z,100546.08
2018-11-12T10:12:12.114Z,100543.76
2018-11-12T10:14:40.788Z,100539.48
2018-11-12T10:17:06.867Z,100529.38
2018-11-12T10:19:32.106Z,100528.41
2018-11-12T10:21:59.480Z,100526.34
2018-11-12T10:24:26.893Z,100528.48
2018-11-12T10:26:54.308Z,100525.49
2018-11-12T10:29:21.716Z,100524.48
2018-11-12T10:31:49.129Z,100525.42
2018-11-12T10:34:16.612Z,100522.42
2018-11-12T10:36:43.937Z,100518.25
2018-11-12T10:39:11.352Z,100518.62
2018-11-12T10:41:38.765Z,100518.55
2018-11-12T10:44:06.184Z,100517.32
2018-11-12T10:46:33.589Z,100511.92
2018-11-12T10:49:00.996Z,100519.54
2018-11-12T10:51:28.474Z,100516.02
2018-11-12T10:53:55.989Z,100512.23
2018-11-12T10:56:23.309Z,100507.58
2018-11-12T10:58:50.724Z,100512.75
2018-11-12T11:01:18.190Z,100511.89
2018-11-12T11:03:45.983Z,100509.42
2018-11-12T11:06:13.479Z,100515.20
2018-11-12T11:08:40.885Z,100512.13
2018-11-12T11:11:08.294Z,100509.30
2018-11-12T11:13:35.893Z,100511.09
2018-11-12T11:16:03.368Z,100522.36
2018-11-12T11:18:30.786Z,100515.58
2018-11-12T11:20:58.226Z,100506.94
2018-11-12T11:23:25.628Z,100512.29
2018-11-12T11:25:53.032Z,100516.78
2018-11-12T11:28:20.437Z,100510.53
2018-11-12T11:30:47.879Z,100510.63
2018-11-12T11:33:15.261Z,100513.57
2018-11-12T11:35:42.674Z,100502.20
2018-11-12T11:38:10.083Z,100504.27
2018-11-12T11:40:37.520Z,100513.52
2018-11-12T11:43:04.908Z,100507.48
2018-11-12T11:45:32.315Z,100514.87
2018-11-12T11:47:59.796Z,100503.00
2018-11-12T11:50:27.877Z,100506.77
2018-11-12T11:52:55.121Z,100508.41
2018-11-12T11:55:23.622Z,100517.90
2018-11-12T11:57:51.388Z,100523.31
2018-11-12T12:00:20.077Z,100525.25
2018-11-12T12:02:48.718Z,100514.22
2018-11-12T12:05:16.932Z,100524.80
2018-11-12T12:07:44.624Z,100508.55
2018-11-12T12:10:12.768Z,100510.59
2018-11-12T12:12:40.443Z,100503.09
2018-11-12T12:15:07.848Z,100506.53
2018-11-12T12:17:35.314Z,100504.17
2018-11-12T12:20:02.753Z,100495.67
2018-11-12T12:22:30.286Z,100494.37
2018-11-12T12:24:57.717Z,100504.05
2018-11-12T12:27:25.104Z,100513.69
2018-11-12T12:29:52.515Z,100511.08
2018-11-12T12:32:19.945Z,100518.92
2018-11-12T12:34:47.465Z,100520.58
2018-11-12T12:37:14.890Z,100523.72
2018-11-12T12:39:42.392Z,100526.31
2018-11-12T12:42:09.800Z,100525.61
2018-11-12T12:44:37.590Z,100510.62
2018-11-12T12:47:05.383Z,100517.36
2018-11-12T12:49:33.453Z,100515.37
2018-11-12T12:52:00.863Z,100514.70
2018-11-12T12:54:28.520Z,100510.83
2018-11-12T12:56:56.032Z,100518.59
2018-11-12T12:59:23.496Z,100530.61
2018-11-12T13:01:51.077Z,100523.16
2018-11-12T13:04:18.562Z,100542.61
2018-11-12T13:06:46.037Z,100532.98
2018-11-12T13:09:13.405Z,100542.03
2018-11-12T13:11:40.868Z,100530.80
2018-11-12T13:14:08.797Z,100524.64
2018-11-12T13:16:36.048Z,100528.55
2018-11-12T13:19:03.734Z,100523.75
2018-11-12T13:21:31.386Z,100524.11
2018-11-12T13:23:59.137Z,100527.97
2018-11-12T13:26:26.550Z,100536.38
2018-11-12T13:28:53.977Z,100525.81
2018-11-12T13:31:21.844Z,100523.23
2018-11-12T13:33:49.273Z,100520.55
2018-11-12T13:36:16.685Z,100525.66
2018-11-12T13:38:44.109Z,100527.92
2018-11-12T13:41:12.815Z,100523.53
2018-11-12T13:43:40.258Z,100527.42
2018-11-12T13:46:07.770Z,100524.91
2018-11-12T13:48:35.209Z,100520.01
2018-11-12T13:51:02.652Z,100522.32
2018-11-12T13:53:30.134Z,100522.27
2018-11-12T13:55:57.565Z,100525.19
2018-11-12T13:58:24.998Z,100527.31
2018-11-12T14:00:52.446Z,100531.35
2018-11-12T14:03:19.952Z,100540.89
2018-11-12T14:05:47.417Z,100539.92
2018-11-12T14:08:14.841Z,100546.81
2018-11-12T14:10:42.281Z,100536.37
2018-11-12T14:13:09.706Z,100543.67
2018-11-12T14:15:37.138Z,100540.14
2018-11-12T14:18:04.584Z,100548.64
2018-11-12T14:20:32.122Z,100556.97
2018-11-12T14:22:59.449Z,100561.59
2018-11-12T14:25:27.145Z,100555.83
2018-11-12T14:27:55.736Z,100558.34
2018-11-12T14:30:24.857Z,100556.51
2018-11-12T14:32:52.325Z,100564.66
2018-11-12T14:35:19.773Z,100564.92
2018-11-12T14:37:47.813Z,100560.83
2018-11-12T14:40:16.413Z,100559.54
2018-11-12T14:42:43.880Z,100567.95
2018-11-12T14:45:13.371Z,100566.16
2018-11-12T14:47:40.748Z,100571.74
2018-11-12T14:50:08.816Z,100572.00
2018-11-12T14:52:36.352Z,100579.42
2018-11-12T14:55:04.283Z,100593.97
2018-11-12T14:57:31.674Z,100591.80
2018-11-12T14:59:59.457Z,100596.09
2018-11-12T15:02:27.413Z,100586.08
2018-11-12T15:04:54.974Z,100588.98
2018-11-12T15:07:22.737Z,100592.05
2018-11-12T15:09:50.166Z,100587.95
2018-11-12T15:12:17.591Z,100584.51
2018-11-12T15:14:45.162Z,100581.77
2018-11-12T15:17:12.441Z,100572.96
2018-11-12T15:19:39.865Z,100582.49
2018-11-12T15:22:07.314Z,100577.59
2018-11-12T15:24:35.240Z,100571.01
2018-11-12T15:27:03.121Z,100568.42
2018-11-12T15:29:30.574Z,100575.39
2018-11-12T15:31:57.976Z,100575.48
2018-11-12T15:34:25.392Z,100583.24
2018-11-12T15:36:52.960Z,100591.28
2018-11-12T15:39:20.255Z,100587.08
2018-11-12T15:41:47.669Z,100587.75
2018-11-12T15:44:15.102Z,100593.70
2018-11-12T15:46:42.538Z,100603.92
2018-11-12T15:49:09.965Z,100600.05
2018-11-12T15:51:37.421Z,100606.98
2018-11-12T15:54:04.866Z,100612.88
2018-11-12T15:56:32.288Z,100616.59
2018-11-12T15:58:59.700Z,100609.48
2018-11-12T16:01:27.406Z,100618.02
2018-11-12T16:03:54.898Z,100614.52
2018-11-12T16:06:22.364Z,100604.98
2018-11-12T16:08:49.725Z,100609.11
2018-11-12T16:11:17.137Z,100611.31
2018-11-12T16:13:44.656Z,100600.22
2018-11-12T16:16:12.082Z,100598.02
2018-11-12T16:18:39.493Z,100601.75
2018-11-12T16:21:06.908Z,100608.64
2018-11-12T16:23:34.328Z,100613.79
2018-11-12T16:26:01.898Z,100615.37
2018-11-12T16:28:29.317Z,100614.64
2018-11-12T16:30:56.730Z,100619.97
2018-11-12T16:33:24.168Z,100611.15
2018-11-12T16:35:51.586Z,100605.63
2018-11-12T16:38:19.095Z,100606.27
2018-11-12T16:40:46.582Z,100609.09
2018-11-12T16:43:14.093Z,100602.00
2018-11-12T16:45:41.573Z,100606.61
2018-11-12T16:48:08.988Z,100610.07
2018-11-12T16:50:37.175Z,100616.31
2018-11-12T16:53:04.613Z,100623.86
2018-11-12T16:55:32.025Z,100625.79
2018-11-12T16:57:59.436Z,100628.85
2018-11-12T17:00:26.853Z,100630.72
2018-11-12T17:02:54.264Z,100631.59
2018-11-12T17:05:23.045Z,100639.61
2018-11-12T17:07:50.478Z,100640.41
2018-11-12T17:10:19.087Z,100639.61
2018-11-12T17:12:47.269Z,100640.34
2018-11-12T17:15:15.137Z,100644.80
2018-11-12T17:17:42.648Z,100640.19
2018-11-12T17:20:10.692Z,100644.47
2018-11-12T17:22:38.332Z,100646.16
2018-11-12T17:25:05.781Z,100644.95
2018-11-12T17:27:33.352Z,100643.56
2018-11-12T17:30:00.937Z,100650.28
2018-11-12T17:32:28.564Z,100648.16
2018-11-12T17:34:55.994Z,100661.27
2018-11-12T17:37:23.423Z,100644.72
2018-11-12T17:39:50.920Z,100649.77
2018-11-12T17:42:18.353Z,100647.84
2018-11-12T17:44:45.774Z,100652.92
2018-11-12T17:47:13.217Z,100655.07
2018-11-12T17:49:40.656Z,100666.83
2018-11-12T17:52:08.066Z,100669.42
2018-11-12T17:54:35.572Z,100671.91
2018-11-12T17:57:02.935Z,100679.09
2018-11-12T17:59:30.344Z,100675.55
2018-11-12T18:01:57.868Z,100674.26
2018-11-12T18:04:25.313Z,100692.81
2018-11-12T18:06:52.735Z,100712.64
2018-11-12T18:09:20.162Z,100695.88
2018-11-12T18:11:47.582Z,100691.75
2018-11-12T18:14:15.025Z,100697.81
2018-11-12T18:16:42.512Z,100685.70
2018-11-12T18:19:09.984Z,100686.07
2018-11-12T18:21:37.545Z,100681.00
2018-11-12T18:24:04.964Z,100678.66
2018-11-12T18:26:32.387Z,100666.98
2018-11-12T18:28:59.987Z,100664.33
2018-11-12T18:31:27.493Z,100662.05
2018-11-12T18:33:54.808Z,100651.06
2018-11-12T18:36:22.267Z,100655.98
2018-11-12T18:38:49.748Z,100655.98
2018-11-12T18:41:17.188Z,100662.93
2018-11-12T18:43:44.705Z,100668.27
2018-11-12T18:46:12.041Z,100667.80
2018-11-12T18:48:39.524Z,100671.67
2018-11-12T18:51:06.934Z,100675.73
2018-11-12T18:53:34.345Z,100689.95
2018-11-12T18:56:01.821Z,100684.91
2018-11-12T18:58:29.894Z,100686.61
2018-11-12T19:00:57.309Z,100695.84
2018-11-12T19:03:24.724Z,100697.02
2018-11-12T19:05:52.150Z,100703.66
2018-11-12T19:08:19.588Z,100709.02
2018-11-12T19:10:47.054Z,100692.11
2018-11-12T19:13:14.433Z,100695.27
2018-11-12T19:15:41.916Z,100700.66
2018-11-12T19:18:10.771Z,100694.91
2018-11-12T19:20:38.185Z,100706.54
2018-11-12T19:23:05.606Z,100688.81
2018-11-12T19:25:33.036Z,100703.95
2018-11-12T19:28:00.476Z,100703.24
2018-11-12T19:30:28.698Z,100702.83
2018-11-12T19:32:56.150Z,100704.96
2018-11-12T19:35:25.054Z,100705.14
2018-11-12T19:37:52.470Z,100718.24
2018-11-12T19:40:21.155Z,100720.24
2018-11-12T19:42:49.556Z,100714.67
2018-11-12T19:45:17.228Z,100715.25
2018-11-12T19:47:44.649Z,100722.05
2018-11-12T19:50:14.193Z,100728.41
2018-11-12T19:52:42.778Z,100715.41
2018-11-12T19:55:10.230Z,100712.65
2018-11-12T19:57:37.636Z,100707.06
2018-11-12T20:00:05.074Z,100723.00
2018-11-12T20:02:33.200Z,100726.64
2018-11-12T20:05:00.624Z,100729.94
2018-11-12T20:07:28.033Z,100733.67
2018-11-12T20:09:55.498Z,100730.75
2018-11-12T20:12:22.964Z,100732.16
2018-11-12T20:14:50.437Z,100729.61
2018-11-12T20:17:18.090Z,100721.52
2018-11-12T20:19:45.548Z,100716.05
2018-11-12T20:22:13.071Z,100722.70
2018-11-12T20:24:40.508Z,100732.05
2018-11-12T20:27:07.920Z,100737.62
2018-11-12T20:29:35.387Z,100740.09
2018-11-12T20:32:02.883Z,100733.81
2018-11-12T20:34:30.318Z,100736.50
2018-11-12T20:36:57.708Z,100740.97
2018-11-12T20:39:25.109Z,100743.89
2018-11-12T20:41:52.520Z,100742.89
2018-11-12T20:44:19.937Z,100746.77
2018-11-12T20:46:47.351Z,100738.87
2018-11-12T20:49:14.781Z,100741.48
2018-11-12T20:51:42.293Z,100746.25
2018-11-12T20:54:09.716Z,100742.27
2018-11-12T20:56:37.138Z,100740.69
2018-11-12T20:59:04.552Z,100748.47
2018-11-12T21:01:31.972Z,100758.59
2018-11-12T21:03:59.397Z,100754.23
2018-11-12T21:06:26.929Z,100748.14
2018-11-12T21:08:54.417Z,100742.37
2018-11-12T21:11:21.905Z,100749.02
2018-11-12T21:13:49.260Z,100745.66
2018-11-12T21:16:16.710Z,100755.19
2018-11-12T21:18:44.101Z,100749.42
2018-11-12T21:21:11.568Z,100740.92
2018-11-12T21:23:39.042Z,100736.50
2018-11-12T21:26:06.488Z,100740.78
2018-11-12T21:28:33.919Z,100736.50
2018-11-12T21:31:01.342Z,100734.46
2018-11-12T21:33:28.753Z,100730.17
2018-11-12T21:35:56.168Z,100736.75
2018-11-12T21:38:23.585Z,100731.76
2018-11-12T21:40:50.999Z,100724.98
2018-11-12T21:43:18.514Z,100722.74
2018-11-12T21:45:45.954Z,100720.63
2018-11-12T21:48:13.412Z,100721.45
2018-11-12T21:50:40.829Z,100726.87
2018-11-12T21:53:08.240Z,100728.39
2018-11-12T21:55:35.678Z,100723.98
2018-11-12T21:58:03.109Z,100713.35
2018-11-12T22:00:30.537Z,100717.00
2018-11-12T22:03:00.229Z,100715.84
2018-11-12T22:05:28.446Z,100710.53
2018-11-12T22:07:55.856Z,100715.33
2018-11-12T22:10:23.281Z,100721.39
2018-11-12T22:12:51.433Z,100717.41
2018-11-12T22:15:18.852Z,100711.94
2018-11-12T22:17:46.272Z,100714.05
2018-11-12T22:20:14.940Z,100710.53
2018-11-12T22:22:42.904Z,100708.87
2018-11-12T22:25:12.032Z,100714.86
2018-11-12T22:27:40.257Z,100714.86
2018-11-12T22:30:07.605Z,100717.71
2018-11-12T22:32:35.013Z,100725.02
2018-11-12T22:35:02.431Z,100716.27
2018-11-12T22:37:29.920Z,100717.27
2018-11-12T22:39:57.274Z,100719.11
2018-11-12T22:42:24.695Z,100721.70
2018-11-12T22:44:52.629Z,100715.64
2018-11-12T22:47:20.041Z,100713.12
2018-11-12T22:49:47.525Z,100720.88
2018-11-12T22:52:14.983Z,100729.33
2018-11-12T22:54:42.430Z,100728.14
2018-11-12T22:57:09.866Z,100735.08
2018-11-12T22:59:37.476Z,100738.99
2018-11-12T23:02:04.881Z,100738.59
2018-11-12T23:04:32.998Z,100732.49
2018-11-12T23:07:00.408Z,100735.55
2018-11-12T23:09:27.816Z,100734.70
2018-11-12T23:11:55.220Z,100733.09
2018-11-12T23:14:22.652Z,100728.16
2018-11-12T23:16:50.057Z,100724.11
2018-11-12T23:19:17.456Z,100732.63
2018-11-12T23:21:44.877Z,100732.14
2018-11-12T23:24:12.293Z,100732.04
2018-11-12T23:26:39.706Z,100734.50
2018-11-12T23:29:07.333Z,100729.56
2018-11-12T23:31:34.815Z,100727.55
2018-11-12T23:34:02.264Z,100727.08
2018-11-12T23:36:29.729Z,100725.03
2018-11-12T23:38:57.147Z,100725.57
2018-11-12T23:41:24.569Z,100723.50
2018-11-12T23:43:52.003Z,100723.91
2018-11-12T23:46:19.457Z,100723.33
2018-11-12T23:48:46.870Z,100720.88
2018-11-12T23:51:14.383Z,100716.05
2018-11-12T23:53:41.864Z,100718.12
2018-11-12T23:56:09.292Z,100707.70
2018-11-12T23:58:36.704Z,100718.45
